Latest Weather Observations for Kuitpo

IDS60801

Issued at 10:05 pm CST Friday 25 July 2014 (issued every 30 minutes, with the page automatically refreshed every 10 minutes)

About weather observations | Map of weather stations | Latest weather observations for SA | Other Formats
Station Details ID: 023887 Name: KUITPO FOREST RESERVE Lat: -35.17 Lon: 138.68 Height: 365.0 m
Data from the previous 72 hours. | See also: Recent months at Kuitpo
Date/Time
CST
Temp
°C
App
Temp
°C
Dew
Point
Rel
Hum
%
Delta-T
°C
Wind Press
QNH
hPa
Press
MSL
hPa
Rain
since 9 am
mm
Dir
 
Spd
km/h
Gust
km/h
Spd
kts
Gust
kts
25/10:00pm 10.5 8.6 10.5 100 0.0 W 11 17 6 9 1021.5 - 0.4
25/09:30pm 10.4 8.9 10.4 100 0.0 WSW 9 19 5 10 1021.4 1021.8 0.4
25/09:00pm 10.5 8.6 10.5 100 0.0 W 11 17 6 9 1021.2 1021.6 0.4
25/08:30pm 10.5 8.2 10.5 100 0.0 W 13 17 7 9 1020.9 1021.3 0.4
25/08:00pm 10.4 8.5 10.4 100 0.0 W 11 20 6 11 1020.8 - 0.4
25/07:30pm 10.4 8.1 10.4 100 0.0 W 13 17 7 9 1020.5 1020.9 0.4
25/07:00pm 10.4 8.1 10.4 100 0.0 W 13 20 7 11 1020.2 - 0.4
25/06:30pm 10.4 8.5 10.4 100 0.0 W 11 19 6 10 1019.9 1020.2 0.2
25/06:00pm 10.3 8.7 10.3 100 0.0 WNW 9 13 5 7 1019.4 1019.7 0.2
25/05:30pm 10.6 9.1 10.6 100 0.0 W 9 13 5 7 1019.1 1019.4 0.2
25/05:00pm 11.0 8.9 11.0 100 0.0 W 13 17 7 9 1018.7 - 0.2
25/04:30pm 11.3 8.5 11.3 100 0.0 WNW 17 24 9 13 1018.4 1018.8 0.2
25/04:00pm 11.9 10.4 11.9 100 0.0 W 11 19 6 10 1017.9 - 0.2
25/03:30pm 11.4 8.6 11.4 100 0.0 W 17 24 9 13 1017.7 1018.0 0.2
25/03:00pm 11.7 9.4 11.7 100 0.0 W 15 24 8 13 1017.3 1017.6 0.2
25/02:30pm 12.2 10.4 12.2 100 0.0 WNW 13 19 7 10 1017.0 1017.3 0.0
25/02:00pm 11.3 8.5 11.3 100 0.0 W 17 26 9 14 1016.9 - 0.0
25/01:30pm 11.0 8.5 11.0 100 0.0 W 15 24 8 13 1016.9 1017.2 0.0
25/01:00pm 11.4 9.0 11.4 100 0.0 WNW 15 24 8 13 1017.1 - 0.0
25/12:30pm 10.9 8.0 10.9 100 0.0 W 17 26 9 14 1017.1 1017.4 0.0
25/12:00pm 11.3 8.9 11.3 100 0.0 W 15 26 8 14 1017.3 1017.6 0.0
25/11:30am 11.1 8.6 11.1 100 0.0 WNW 15 24 8 13 1017.4 1017.7 0.0
25/11:00am 11.1 9.0 11.1 100 0.0 W 13 22 7 12 1017.3 - 0.0
25/10:30am 10.6 8.0 10.6 100 0.0 W 15 22 8 12 1017.2 1017.5 0.0
25/10:00am 10.6 7.6 10.6 100 0.0 W 17 28 9 15 1017.1 - 0.0
25/09:30am 10.4 7.3 10.4 100 0.0 W 17 28 9 15 1016.7 1017.0 0.0
25/09:00am 10.2 7.5 10.2 100 0.0 W 15 26 8 14 1016.4 1016.7 15.2
25/08:30am 10.2 6.7 10.2 100 0.0 W 19 28 10 15 1015.9 1016.3 15.2
25/08:00am 9.5 6.9 9.5 100 0.0 W 13 19 7 10 1015.5 - 15.2
25/07:30am 9.6 6.3 9.6 100 0.0 W 17 26 9 14 1015.0 1015.3 15.0
25/07:00am 10.1 6.9 10.1 100 0.0 W 17 28 9 15 1014.6 - 12.8
25/06:30am 10.0 6.8 10.0 100 0.0 W 17 30 9 16 1014.3 1014.6 11.0
25/06:00am 10.2 6.7 10.2 100 0.0 W 19 33 10 18 1013.6 1013.9 10.8
25/05:30am 9.7 6.4 9.7 100 0.0 WSW 17 26 9 14 1013.2 1013.5 10.8
25/05:00am 10.2 6.5 10.2 100 0.0 W 20 32 11 17 1012.9 - 7.4
25/04:30am 10.1 6.4 10.1 100 0.0 WNW 20 35 11 19 1012.6 1012.9 6.8
25/04:00am 10.2 6.7 10.2 100 0.0 W 19 33 10 18 1012.3 - 6.6
25/03:30am 10.3 6.3 10.3 100 0.0 W 22 35 12 19 1012.0 1012.3 5.8
25/03:00am 10.3 6.6 10.3 100 0.0 W 20 39 11 21 1011.9 1012.2 5.6
25/02:30am 10.2 5.7 10.2 100 0.0 WNW 24 39 13 21 1011.7 1012.0 5.6
25/02:00am 10.1 5.6 10.1 100 0.0 WNW 24 37 13 20 1011.3 - 5.2
25/01:30am 10.3 5.9 10.3 100 0.0 WNW 24 37 13 20 1011.1 1011.3 5.0
25/01:00am 10.2 5.7 10.2 100 0.0 WNW 24 48 13 26 1010.9 - 5.0
25/12:30am 10.2 5.7 10.2 100 0.0 WNW 24 39 13 21 1010.8 1011.0 5.0
25/12:00am 10.1 5.6 10.1 100 0.0 WNW 24 41 13 22 1010.7 1010.9 5.0
 
Date/Time
CST
Temp
°C
App
Temp
°C
Dew
Point
Rel
Hum
%
Delta-T
°C
Wind Press
QNH
hPa
Press
MSL
hPa
Rain
since 9 am
mm
Dir
 
Spd
km/h
Gust
km/h
Spd
kts
Gust
kts
24/11:30pm 10.2 6.1 10.2 100 0.0 WNW 22 41 12 22 1010.6 1010.8 5.0
24/11:00pm 10.2 6.1 10.2 100 0.0 WNW 22 35 12 19 1010.5 - 5.0
24/10:30pm 10.2 6.1 10.2 100 0.0 WNW 22 37 12 20 1010.2 1010.5 5.0
24/10:00pm 10.1 5.6 10.1 100 0.0 WNW 24 35 13 19 1010.0 - 5.0
24/09:30pm 10.0 5.5 10.0 100 0.0 WNW 24 35 13 19 1009.9 1010.2 5.0
24/09:00pm 10.2 6.1 10.2 100 0.0 WNW 22 37 12 20 1009.8 1010.1 4.8
24/08:30pm 10.4 6.0 10.4 100 0.0 WNW 24 39 13 21 1009.7 1010.0 4.8
24/08:00pm 10.4 6.4 10.4 100 0.0 WNW 22 37 12 20 1009.3 - 4.8
24/07:30pm 10.4 6.8 10.4 100 0.0 WNW 20 33 11 18 1008.8 1009.1 4.8
24/07:00pm 10.3 5.9 10.3 100 0.0 NW 24 39 13 21 1008.4 - 3.8
24/06:30pm 10.4 6.0 10.4 100 0.0 NW 24 41 13 22 1008.1 1008.3 3.4
24/06:00pm 10.4 6.8 10.4 100 0.0 WNW 20 35 11 19 1007.9 1008.1 3.4
24/05:30pm 10.3 5.9 10.3 100 0.0 WNW 24 43 13 23 1007.6 1007.8 3.4
24/05:00pm 10.2 6.5 10.2 100 0.0 WNW 20 33 11 18 1007.2 - 3.4
24/04:30pm 10.5 6.9 10.5 100 0.0 WNW 20 32 11 17 1006.9 1007.2 3.2
24/04:00pm 10.6 6.6 10.6 100 0.0 W 22 35 12 19 1006.5 - 3.0
24/03:30pm 10.5 6.9 10.5 100 0.0 WNW 20 33 11 18 1005.9 1006.1 2.6
24/03:00pm 10.6 6.3 10.6 100 0.0 WNW 24 41 13 22 1005.6 1005.8 1.0
24/02:30pm 10.7 7.1 10.7 100 0.0 NW 20 35 11 19 1005.3 1005.5 0.8
24/02:00pm 11.1 7.3 11.1 100 0.0 NW 22 35 12 19 1005.2 - 0.6
24/01:30pm 10.7 6.4 10.7 100 0.0 NW 24 35 13 19 1005.2 1005.4 0.6
24/01:00pm 10.7 6.8 10.7 100 0.0 NW 22 39 12 21 1005.3 - 0.6
24/12:30pm 10.3 5.9 10.3 100 0.0 WNW 24 37 13 20 1005.6 1005.8 0.6
24/12:00pm 10.0 5.9 10.0 100 0.0 NW 22 39 12 21 1005.9 1006.1 0.6
24/11:30am 9.7 5.1 9.7 100 0.0 NW 24 39 13 21 1005.9 1006.1 0.6
24/11:00am 9.7 4.7 9.7 100 0.0 WNW 26 43 14 23 1005.9 - 0.6
24/10:30am 9.8 4.9 9.8 100 0.0 WNW 26 46 14 25 1005.8 1006.0 0.4
24/10:21am 9.7 4.4 9.7 100 0.0 WNW 28 46 15 25 1005.7 - 0.4
24/10:00am 9.7 4.4 9.7 100 0.0 WNW 28 44 15 24 1005.5 - 0.4
24/09:31am 9.5 4.1 9.5 100 0.0 WNW 28 50 15 27 1005.1 - 0.4
24/09:30am 9.6 4.6 9.6 100 0.0 WNW 26 50 14 27 1005.1 1005.3 0.4
24/09:00am 9.3 5.0 9.3 100 0.0 WNW 22 35 12 19 1004.5 1004.8 18.0
24/08:30am 9.2 5.4 9.2 100 0.0 NW 19 35 10 19 1004.3 1004.6 17.8
24/08:00am 9.2 5.4 9.2 100 0.0 NW 19 39 10 21 1003.8 - 17.6
24/07:30am 9.2 5.4 9.2 100 0.0 NNW 19 35 10 19 1003.6 1003.8 17.0
24/07:00am 9.2 5.8 9.2 100 0.0 NNW 17 30 9 16 1003.3 - 16.8
24/06:30am 9.2 5.4 9.2 100 0.0 N 19 32 10 17 1003.0 1003.2 16.8
24/06:00am 9.0 5.2 9.0 100 0.0 N 19 30 10 16 1003.0 1003.2 16.4
24/05:30am 8.8 4.9 8.8 100 0.0 N 19 30 10 16 1003.0 1003.2 16.2
24/05:00am 8.1 5.2 8.1 100 0.0 NNE 13 24 7 13 1003.1 - 15.8
24/04:30am 7.9 4.9 7.9 100 0.0 NNE 13 20 7 11 1003.1 1003.3 14.6
24/04:00am 7.7 3.9 7.7 100 0.0 NNE 17 28 9 15 1003.2 - 13.8
24/03:30am 7.7 3.4 7.7 100 0.0 NNE 20 30 11 16 1003.5 1003.7 12.8
24/03:00am 8.0 3.9 7.9 99 0.0 NNE 19 30 10 16 1003.9 1004.1 12.0
24/02:30am 8.1 3.1 8.0 99 0.0 NNE 24 39 13 21 1004.1 1004.3 11.8
24/02:00am 7.8 2.7 7.8 100 0.0 NE 24 35 13 19 1004.5 - 11.6
24/01:30am 7.7 2.6 7.7 100 0.0 NE 24 32 13 17 1005.2 1005.4 11.6
24/01:00am 7.7 3.4 7.7 100 0.0 NE 20 30 11 16 1005.9 - 11.4
24/12:30am 7.9 2.8 7.8 99 0.0 NE 24 37 13 20 1006.3 1006.5 11.0
24/12:00am 8.1 2.5 7.3 95 0.4 NE 26 44 14 24 1006.8 1007.1 10.8
 
Date/Time
CST
Temp
°C
App
Temp
°C
Dew
Point
Rel
Hum
%
Delta-T
°C
Wind Press
QNH
hPa
Press
MSL
hPa
Rain
since 9 am
mm
Dir
 
Spd
km/h
Gust
km/h
Spd
kts
Gust
kts
23/11:30pm 8.1 2.8 6.7 91 0.7 NE 24 33 13 18 1007.1 1007.4 10.8
23/11:00pm 7.9 1.8 6.7 92 0.6 NE 28 41 15 22 1007.8 - 10.8
23/10:38pm 7.8 1.7 6.7 93 0.5 NE 28 46 15 25 1008.2 - 10.8
23/10:30pm 7.8 1.3 6.6 92 0.6 NE 30 44 16 24 1008.5 1008.7 10.8
23/10:01pm 7.8 1.4 7.1 95 0.3 NE 30 50 16 27 1008.8 - 10.8
23/10:00pm 7.7 1.3 7.0 95 0.3 NE 30 44 16 24 1008.9 - 10.8
23/09:30pm 7.8 1.0 7.5 98 0.1 NE 33 54 18 29 1009.3 1009.6 10.8
23/09:05pm 7.6 1.3 7.6 100 0.0 NE 30 48 16 26 1009.7 - 10.8
23/09:00pm 7.7 1.1 7.7 100 0.0 NE 32 44 17 24 1009.9 1010.2 10.6
23/08:48pm 7.5 1.2 7.5 100 0.0 NE 30 54 16 29 1010.0 - 10.2
23/08:30pm 7.4 2.2 7.4 100 0.0 NE 24 37 13 20 1010.3 1010.6 10.0
23/08:00pm 7.2 2.0 7.2 100 0.0 NE 24 35 13 19 1010.7 - 9.6
23/07:30pm 7.2 2.4 7.2 100 0.0 NE 22 33 12 18 1011.3 1011.6 8.2
23/07:00pm 7.3 2.1 7.2 99 0.0 NE 24 35 13 19 1011.3 - 6.4
23/06:30pm 7.5 3.6 6.9 96 0.3 NNE 17 26 9 14 1011.4 1011.7 4.2
23/06:00pm 7.9 3.8 6.4 90 0.7 NNE 17 30 9 16 1011.4 1011.7 2.2
23/05:30pm 9.5 3.1 5.1 74 2.0 NE 28 41 15 22 1010.2 1010.5 1.2
23/05:00pm 9.4 3.8 5.2 75 1.9 NE 24 43 13 23 1010.3 - 1.2
23/04:30pm 10.1 4.2 5.9 75 2.0 NE 26 39 14 21 1010.2 1010.5 1.2
23/04:00pm 10.3 5.3 8.1 86 1.1 ENE 24 39 13 21 1010.2 - 1.2
23/03:30pm 10.8 6.9 8.6 86 1.1 ENE 19 28 10 15 1010.7 1010.9 1.2
23/03:00pm 10.4 5.8 8.3 87 1.0 NE 22 37 12 20 1010.9 1011.1 1.2
23/02:30pm 9.9 5.0 8.5 91 0.7 ENE 24 35 13 19 1010.8 1011.0 1.2
23/02:00pm 9.8 6.0 9.0 95 0.4 ENE 19 26 10 14 1011.9 - 0.8
23/01:30pm 10.4 8.0 8.8 90 0.8 N 11 22 6 12 1013.0 1013.3 0.6
23/01:00pm 11.6 8.5 7.1 74 2.2 N 13 22 7 12 1013.6 - 0.0
23/12:30pm 12.3 9.2 5.7 64 3.1 N 11 24 6 13 1014.0 1014.3 0.0
23/12:00pm 12.6 8.2 4.6 58 3.7 NNW 17 26 9 14 1014.8 1015.1 0.0
23/11:30am 13.3 8.4 3.9 53 4.3 NNW 19 32 10 17 1015.5 1015.8 0.0
23/11:00am 12.5 8.4 4.5 58 3.7 N 15 20 8 11 1016.0 - 0.0
23/10:30am 11.1 7.9 5.0 66 2.8 NNE 11 15 6 8 1016.4 1016.7 0.0
23/10:00am 10.3 6.5 4.0 65 2.8 NNE 13 20 7 11 1016.5 - 0.0
23/09:30am 10.5 6.3 3.8 63 3.0 NE 15 22 8 12 1016.5 1016.8 0.0
23/09:00am 10.0 5.7 3.5 64 2.9 NE 15 22 8 12 1016.5 1016.8 0.0
23/08:30am 9.9 5.5 2.7 61 3.1 NE 15 24 8 13 1016.3 1016.6 0.0
23/08:00am 9.8 5.0 2.6 61 3.1 NE 17 24 9 13 1016.5 - 0.0
23/07:30am 9.4 5.0 2.5 62 3.0 NE 15 20 8 11 1016.5 1016.8 0.0
23/07:00am 9.5 4.7 2.4 61 3.1 NE 17 24 9 13 1016.7 - 0.0
23/06:30am 9.4 4.2 2.3 61 3.1 NE 19 26 10 14 1016.6 1016.9 0.0
23/06:00am 9.4 4.2 2.3 61 3.1 NE 19 26 10 14 1016.7 1017.0 0.0
23/05:30am 9.3 4.1 2.4 62 3.0 NE 19 28 10 15 1016.6 1016.9 0.0
23/05:00am 9.3 4.1 2.6 63 2.9 NE 19 26 10 14 1016.7 - 0.0
23/04:30am 9.2 4.4 2.8 64 2.8 NE 17 22 9 12 1016.8 1017.1 0.0
23/04:00am 9.3 4.6 2.9 64 2.8 NE 17 26 9 14 1017.1 - 0.0
23/03:30am 9.3 4.6 2.9 64 2.8 NE 17 24 9 13 1017.4 1017.7 0.0
23/03:00am 9.3 4.2 2.9 64 2.8 NE 19 28 10 15 1017.6 1017.9 0.0
23/02:30am 9.1 4.0 2.9 65 2.7 NE 19 30 10 16 1017.8 1018.1 0.0
23/02:00am 9.1 4.0 2.9 65 2.7 NE 19 30 10 16 1018.3 - 0.0
23/01:30am 9.3 4.0 3.1 65 2.7 NE 20 30 11 16 1018.2 1018.6 0.0
23/01:00am 9.2 3.9 3.2 66 2.6 NE 20 33 11 18 1018.3 - 0.0
23/12:30am 9.4 4.2 3.4 66 2.6 NE 20 28 11 15 1018.6 1019.0 0.0
23/12:00am 9.3 4.2 3.3 66 2.6 NE 19 30 10 16 1019.1 1019.4 0.0
 
Date/Time
CST
Temp
°C
App
Temp
°C
Dew
Point
Rel
Hum
%
Delta-T
°C
Wind Press
QNH
hPa
Press
MSL
hPa
Rain
since 9 am
mm
Dir
 
Spd
km/h
Gust
km/h
Spd
kts
Gust
kts
22/11:30pm 9.5 3.9 3.5 66 2.7 NE 22 35 12 19 1019.5 1019.8 0.0
22/11:00pm 9.5 3.9 3.5 66 2.7 NE 22 35 12 19 1019.5 - 0.0
22/10:30pm 9.3 4.2 3.3 66 2.6 NE 19 26 10 14 1019.7 1020.0 0.0

Other Formats:

Comma delimited format used in spreadsheet applications
http://www.bom.gov.au/fwo/IDS60801/IDS60801.94683.axf

JavaScript Object Notation format (JSON) in row-major order
http://www.bom.gov.au/fwo/IDS60801/IDS60801.94683.json